createdAt,value
2019-03-03T00:02:03.175Z,5.21
2019-03-03T00:04:30.984Z,5.23
2019-03-03T00:06:58.744Z,5.23
2019-03-03T00:09:26.735Z,5.27
2019-03-03T00:11:54.489Z,5.26
2019-03-03T00:14:22.336Z,5.25
2019-03-03T00:16:52.063Z,5.26
2019-03-03T00:19:19.964Z,5.29
2019-03-03T00:21:47.785Z,5.29
2019-03-03T00:24:15.677Z,5.29
2019-03-03T00:26:43.442Z,5.30
2019-03-03T00:29:11.222Z,5.29
2019-03-03T00:31:40.477Z,5.29
2019-03-03T00:34:08.504Z,5.27
2019-03-03T00:36:54.465Z,5.25
2019-03-03T00:39:41.709Z,5.22
2019-03-03T00:42:28.595Z,5.21
2019-03-03T00:45:07.102Z,5.17
2019-03-03T00:47:52.922Z,5.16
2019-03-03T00:50:42.172Z,5.17
2019-03-03T00:53:15.824Z,5.17
2019-03-03T00:56:05.514Z,5.16
2019-03-03T00:58:47.142Z,5.11
2019-03-03T01:01:40.757Z,5.12
2019-03-03T01:04:33.657Z,5.11
2019-03-03T01:07:29.960Z,5.19
2019-03-03T01:10:11.987Z,5.17
2019-03-03T01:12:55.963Z,5.18
2019-03-03T01:15:39.661Z,5.20
2019-03-03T01:18:21.576Z,5.23
2019-03-03T01:20:55.333Z,5.23
2019-03-03T01:23:41.330Z,5.26
2019-03-03T01:26:09.196Z,5.27
2019-03-03T01:28:37.033Z,5.28
2019-03-03T01:31:04.982Z,5.27
2019-03-03T01:33:32.911Z,5.25
2019-03-03T01:36:00.655Z,5.24
2019-03-03T01:38:28.580Z,5.24
2019-03-03T01:40:56.541Z,5.29
2019-03-03T01:43:24.402Z,5.33
2019-03-03T01:46:01.719Z,5.30
2019-03-03T01:48:29.853Z,5.33
2019-03-03T01:50:57.712Z,5.34
2019-03-03T01:53:25.537Z,5.37
2019-03-03T01:55:53.375Z,5.41
2019-03-03T01:58:21.789Z,5.41
2019-03-03T02:00:49.830Z,5.40
2019-03-03T02:03:17.649Z,5.39
2019-03-03T02:05:45.378Z,5.44
2019-03-03T02:08:13.396Z,5.41
2019-03-03T02:10:41.229Z,5.41
2019-03-03T02:13:09.839Z,5.43
2019-03-03T02:15:37.962Z,5.46
2019-03-03T02:18:05.892Z,5.48
2019-03-03T02:20:33.823Z,5.55
2019-03-03T02:23:01.780Z,5.55
2019-03-03T02:25:30.313Z,5.55
2019-03-03T02:27:58.347Z,5.52
2019-03-03T02:30:26.175Z,5.52
2019-03-03T02:32:54.891Z,5.50
2019-03-03T02:35:22.834Z,5.53
2019-03-03T02:37:50.841Z,5.53
2019-03-03T02:40:18.812Z,5.61
2019-03-03T02:42:46.896Z,5.61
2019-03-03T02:45:15.162Z,5.64
2019-03-03T02:47:43.099Z,5.67
2019-03-03T02:50:12.065Z,5.65
2019-03-03T02:52:39.997Z,5.65
2019-03-03T02:55:09.640Z,5.67
2019-03-03T02:57:37.485Z,5.65
2019-03-03T03:00:08.772Z,5.63
2019-03-03T03:03:01.805Z,5.67
2019-03-03T03:05:47.820Z,5.67
2019-03-03T03:08:19.648Z,5.66
2019-03-03T03:11:05.630Z,5.63
2019-03-03T03:13:52.924Z,5.66
2019-03-03T03:16:28.648Z,5.65
2019-03-03T03:19:20.980Z,5.71
2019-03-03T03:21:57.375Z,5.75
2019-03-03T03:24:39.014Z,5.75
2019-03-03T03:27:24.896Z,5.80
2019-03-03T03:30:21.133Z,5.76
2019-03-03T03:33:08.370Z,5.75
2019-03-03T03:35:55.615Z,5.75
2019-03-03T03:38:34.158Z,5.81
2019-03-03T03:41:33.873Z,5.75
2019-03-03T03:44:19.860Z,5.81
2019-03-03T03:46:55.461Z,5.86
2019-03-03T03:49:41.594Z,5.79
2019-03-03T03:52:27.430Z,5.82
2019-03-03T03:55:15.053Z,5.83
2019-03-03T03:58:00.863Z,5.84
2019-03-03T04:00:46.613Z,5.84
2019-03-03T04:03:33.905Z,5.86
2019-03-03T04:06:19.603Z,5.87
2019-03-03T04:08:54.996Z,5.88
2019-03-03T04:11:57.634Z,5.88
2019-03-03T04:14:44.903Z,5.92
2019-03-03T04:17:22.764Z,5.93
2019-03-03T04:20:09.963Z,5.93
2019-03-03T04:23:00.217Z,5.93
2019-03-03T04:25:39.712Z,5.90
2019-03-03T04:28:20.182Z,5.95
2019-03-03T04:31:06.233Z,5.93
2019-03-03T04:34:02.501Z,5.94
2019-03-03T04:36:55.714Z,5.97
2019-03-03T04:39:29.535Z,6.03
2019-03-03T04:42:16.959Z,6.10
2019-03-03T04:45:04.286Z,6.13
2019-03-03T04:47:47.166Z,6.15
2019-03-03T04:50:37.060Z,6.20
2019-03-03T04:53:33.943Z,6.22
2019-03-03T04:56:30.063Z,6.24
2019-03-03T04:59:20.105Z,6.26
2019-03-03T05:02:07.424Z,6.26
2019-03-03T05:04:52.670Z,6.26
2019-03-03T05:07:27.257Z,6.33
2019-03-03T05:10:21.359Z,6.37
2019-03-03T05:12:57.612Z,6.38
2019-03-03T05:15:59.744Z,6.40
2019-03-03T05:18:32.253Z,6.37
2019-03-03T05:21:00.006Z,6.39
2019-03-03T05:23:27.922Z,6.46
2019-03-03T05:25:55.691Z,6.50
2019-03-03T05:28:23.592Z,6.55
2019-03-03T05:30:51.438Z,6.59
2019-03-03T05:33:19.280Z,6.67
2019-03-03T05:35:47.011Z,6.66
2019-03-03T05:38:14.821Z,6.66
2019-03-03T05:40:42.596Z,6.67
2019-03-03T05:43:10.495Z,6.73
2019-03-03T05:45:39.591Z,6.78
2019-03-03T05:48:07.340Z,6.74
2019-03-03T05:50:36.836Z,6.74
2019-03-03T05:53:04.675Z,6.81
2019-03-03T05:55:32.608Z,6.78
2019-03-03T05:58:11.428Z,6.79
2019-03-03T06:00:39.388Z,6.86
2019-03-03T06:03:07.633Z,6.83
2019-03-03T06:05:35.541Z,6.82
2019-03-03T06:08:03.385Z,6.77
2019-03-03T06:10:31.289Z,6.79
2019-03-03T06:12:59.100Z,6.85
2019-03-03T06:15:26.977Z,6.96
2019-03-03T06:17:56.617Z,6.93
2019-03-03T06:20:24.539Z,6.91
2019-03-03T06:22:52.294Z,6.90
2019-03-03T06:25:20.102Z,6.97
2019-03-03T06:27:47.850Z,6.97
2019-03-03T06:30:15.910Z,6.99
2019-03-03T06:32:43.793Z,7.04
2019-03-03T06:35:12.283Z,7.09
2019-03-03T06:37:40.102Z,7.05
2019-03-03T06:40:08.523Z,7.04
2019-03-03T06:42:36.477Z,7.07
2019-03-03T06:45:05.059Z,7.07
2019-03-03T06:47:34.843Z,7.11
2019-03-03T06:50:03.778Z,7.20
2019-03-03T06:52:31.534Z,7.20
2019-03-03T06:54:59.555Z,7.24
2019-03-03T06:57:27.305Z,7.29
2019-03-03T06:59:55.102Z,7.26
2019-03-03T07:02:22.916Z,7.33
2019-03-03T07:04:50.735Z,7.33
2019-03-03T07:07:18.506Z,7.31
2019-03-03T07:09:46.328Z,7.34
2019-03-03T07:12:14.100Z,7.38
2019-03-03T07:14:42.053Z,7.44
2019-03-03T07:17:10.095Z,7.49
2019-03-03T07:19:38.036Z,7.56
2019-03-03T07:22:06.143Z,7.61
2019-03-03T07:24:34.030Z,7.67
2019-03-03T07:27:01.901Z,7.72
2019-03-03T07:29:30.628Z,7.75
2019-03-03T07:31:59.495Z,7.78
2019-03-03T07:34:27.905Z,7.86
2019-03-03T07:36:55.841Z,7.87
2019-03-03T07:39:23.768Z,7.92
2019-03-03T07:41:51.608Z,7.97
2019-03-03T07:44:19.593Z,8.03
2019-03-03T07:46:47.524Z,8.11
2019-03-03T07:49:15.941Z,8.18
2019-03-03T07:51:43.812Z,8.22
2019-03-03T07:54:11.610Z,8.27
2019-03-03T07:56:39.366Z,8.31
2019-03-03T07:59:07.150Z,8.39
2019-03-03T08:01:34.985Z,8.47
2019-03-03T08:04:02.933Z,8.53
2019-03-03T08:06:30.663Z,8.58
2019-03-03T08:08:58.486Z,8.67
2019-03-03T08:11:26.331Z,8.78
2019-03-03T08:13:54.179Z,8.88
2019-03-03T08:16:22.050Z,8.99
2019-03-03T08:18:49.822Z,9.09
2019-03-03T08:21:17.645Z,9.18
2019-03-03T08:23:45.395Z,9.27
2019-03-03T08:26:13.503Z,9.35
2019-03-03T08:28:41.230Z,9.51
2019-03-03T08:31:09.140Z,9.64
2019-03-03T08:33:42.962Z,9.77
2019-03-03T08:36:10.884Z,9.87
2019-03-03T08:38:38.644Z,9.99
2019-03-03T08:41:06.504Z,10.02
2019-03-03T08:43:41.871Z,10.06
2019-03-03T08:46:16.262Z,10.17
2019-03-03T08:49:09.152Z,10.24
2019-03-03T08:52:03.173Z,10.38
2019-03-03T08:58:01.987Z,10.57
2019-03-03T09:00:52.123Z,10.68
2019-03-03T09:03:44.094Z,10.75
2019-03-03T09:06:30.122Z,10.86
2019-03-03T09:09:20.131Z,11.04
2019-03-03T09:12:06.026Z,11.16
2019-03-03T09:15:02.388Z,11.20
2019-03-03T09:17:52.309Z,11.26
2019-03-03T09:20:39.597Z,11.33
2019-03-03T09:23:30.263Z,11.39
2019-03-03T09:26:26.745Z,11.37
2019-03-03T09:29:01.526Z,11.40
2019-03-03T09:31:47.235Z,11.43
2019-03-03T09:34:37.119Z,11.42
2019-03-03T09:37:23.336Z,11.49
2019-03-03T09:40:09.926Z,11.53
2019-03-03T09:42:51.023Z,11.60
2019-03-03T09:45:40.928Z,11.61
2019-03-03T09:48:15.926Z,11.72
2019-03-03T09:51:01.700Z,11.75
2019-03-03T09:53:40.949Z,11.76
2019-03-03T09:56:30.938Z,11.87
2019-03-03T09:59:24.106Z,11.89
2019-03-03T10:02:14.854Z,11.98
2019-03-03T10:04:58.854Z,12.03
2019-03-03T10:08:04.170Z,12.04
2019-03-03T10:11:00.561Z,12.09
2019-03-03T10:13:57.295Z,12.20
2019-03-03T10:17:03.061Z,12.24
2019-03-03T10:19:42.211Z,12.33
2019-03-03T10:22:17.067Z,12.35
2019-03-03T10:25:10.460Z,12.41
2019-03-03T10:28:09.674Z,12.44
2019-03-03T10:30:59.184Z,12.48
2019-03-03T10:33:48.905Z,12.52
2019-03-03T10:36:25.318Z,12.64
2019-03-03T10:39:11.115Z,12.64
2019-03-03T10:41:58.264Z,12.68
2019-03-03T10:44:48.362Z,12.79
2019-03-03T10:47:35.780Z,12.82
2019-03-03T10:50:35.272Z,12.86
2019-03-03T10:53:10.794Z,12.84
2019-03-03T10:55:44.983Z,12.90
2019-03-03T10:58:23.038Z,12.82
2019-03-03T11:01:04.721Z,12.80
2019-03-03T11:03:46.296Z,12.84
2019-03-03T11:06:38.601Z,12.85
2019-03-03T11:09:24.290Z,12.89
2019-03-03T11:12:03.809Z,12.91
2019-03-03T11:14:51.184Z,12.80
2019-03-03T11:17:44.420Z,12.81
2019-03-03T11:20:36.018Z,12.80
2019-03-03T11:23:26.574Z,12.84
2019-03-03T11:26:20.209Z,12.83
2019-03-03T11:29:02.133Z,12.83
2019-03-03T11:31:52.078Z,12.91
2019-03-03T11:34:48.231Z,12.99
2019-03-03T11:37:38.386Z,13.07
2019-03-03T11:40:32.591Z,13.12
2019-03-03T11:43:18.303Z,13.12
2019-03-03T11:46:04.682Z,13.11
2019-03-03T11:48:50.708Z,13.11
2019-03-03T11:51:46.770Z,13.17
2019-03-03T11:54:30.891Z,13.09
2019-03-03T11:57:09.968Z,13.03
2019-03-03T11:59:57.159Z,13.02
2019-03-03T12:02:39.597Z,13.04
2019-03-03T12:05:32.445Z,13.04
2019-03-03T12:08:19.679Z,13.07
2019-03-03T12:10:56.519Z,13.04
2019-03-03T12:13:43.196Z,13.17
2019-03-03T12:16:23.919Z,13.17
2019-03-03T12:19:03.740Z,13.26
2019-03-03T12:21:49.842Z,13.47
2019-03-03T12:24:46.088Z,13.47
2019-03-03T12:27:36.402Z,13.66
2019-03-03T12:30:24.911Z,13.81
2019-03-03T12:33:10.747Z,13.79
2019-03-03T12:35:44.811Z,13.74
2019-03-03T12:38:47.356Z,13.64
2019-03-03T12:41:33.122Z,13.64
2019-03-03T12:44:08.473Z,13.56
2019-03-03T12:47:01.588Z,13.56
2019-03-03T12:49:47.606Z,13.49
2019-03-03T12:52:46.909Z,13.42
2019-03-03T12:55:22.927Z,13.46
2019-03-03T12:58:18.067Z,13.36
2019-03-03T13:00:57.967Z,13.36
2019-03-03T13:03:45.306Z,13.35
2019-03-03T13:06:30.403Z,13.35
2019-03-03T13:09:10.937Z,13.51
2019-03-03T13:12:04.485Z,13.46
2019-03-03T13:14:57.876Z,13.46
2019-03-03T13:17:49.819Z,13.38
2019-03-03T13:20:42.979Z,13.29
2019-03-03T13:23:22.938Z,13.32
2019-03-03T13:26:15.963Z,13.37
2019-03-03T13:29:02.237Z,13.25
2019-03-03T13:31:48.172Z,13.31
2019-03-03T13:34:27.568Z,13.30
2019-03-03T13:37:15.256Z,13.25
2019-03-03T13:40:15.269Z,13.30
2019-03-03T13:42:58.320Z,13.30
2019-03-03T13:45:28.991Z,13.23
2019-03-03T13:47:56.982Z,13.28
2019-03-03T13:50:25.254Z,13.32
2019-03-03T13:52:53.145Z,13.32
2019-03-03T13:55:21.081Z,13.35
2019-03-03T13:57:49.128Z,13.34
2019-03-03T14:00:20.136Z,13.34
2019-03-03T14:02:48.531Z,13.32
2019-03-03T14:05:18.501Z,13.33
2019-03-03T14:07:46.789Z,13.32
2019-03-03T14:10:15.181Z,13.39
2019-03-03T14:12:43.372Z,13.39
2019-03-03T14:15:14.365Z,13.38
2019-03-03T14:17:42.497Z,13.32
2019-03-03T14:20:13.241Z,13.32
2019-03-03T14:22:41.938Z,13.34
2019-03-03T14:25:10.104Z,13.34
2019-03-03T14:27:38.074Z,13.23
2019-03-03T14:30:07.767Z,13.28
2019-03-03T14:33:00.685Z,13.33
2019-03-03T14:35:28.614Z,13.29
2019-03-03T14:38:00.072Z,13.23
2019-03-03T14:40:28.138Z,13.23
2019-03-03T14:42:55.891Z,13.31
2019-03-03T14:45:23.915Z,13.23
2019-03-03T14:47:51.888Z,13.21
2019-03-03T14:50:19.836Z,13.24
2019-03-03T14:52:48.463Z,13.22
2019-03-03T14:55:17.621Z,13.22
2019-03-03T14:57:45.525Z,13.22
2019-03-03T15:00:29.217Z,13.18
2019-03-03T15:02:58.468Z,13.20
2019-03-03T15:05:26.710Z,13.18
2019-03-03T15:07:54.690Z,13.22
2019-03-03T15:10:22.741Z,13.22
2019-03-03T15:12:50.846Z,13.30
2019-03-03T15:15:19.914Z,13.14
2019-03-03T15:17:47.918Z,13.12
2019-03-03T15:20:16.365Z,13.25
2019-03-03T15:22:44.415Z,13.15
2019-03-03T15:25:13.224Z,13.15
2019-03-03T15:27:41.075Z,13.11
2019-03-03T15:30:10.426Z,13.06
2019-03-03T15:32:38.498Z,13.06
2019-03-03T15:35:06.502Z,13.04
2019-03-03T15:37:35.125Z,13.06
2019-03-03T15:40:03.617Z,13.05
2019-03-03T15:42:31.562Z,13.05
2019-03-03T15:44:59.332Z,13.03
2019-03-03T15:47:27.940Z,13.01
2019-03-03T15:49:56.827Z,12.91
2019-03-03T15:52:24.681Z,12.91
2019-03-03T15:54:52.680Z,12.97
2019-03-03T15:57:21.416Z,12.98
2019-03-03T15:59:49.289Z,12.93
2019-03-03T16:02:17.327Z,12.90
2019-03-03T16:04:45.226Z,12.90
2019-03-03T16:07:13.046Z,12.90
2019-03-03T16:09:40.921Z,12.90
2019-03-03T16:12:08.855Z,12.93
2019-03-03T16:14:36.624Z,12.86
2019-03-03T16:17:04.641Z,12.84
2019-03-03T16:19:44.081Z,12.82
2019-03-03T16:22:12.112Z,12.82
2019-03-03T16:24:39.918Z,12.83
2019-03-03T16:27:08.243Z,12.83
2019-03-03T16:29:36.140Z,12.82
2019-03-03T16:32:04.169Z,12.71
2019-03-03T16:34:32.242Z,12.71
2019-03-03T16:37:01.061Z,12.72
2019-03-03T16:39:28.831Z,12.74
2019-03-03T16:41:56.762Z,12.74
2019-03-03T16:44:24.663Z,12.75
2019-03-03T16:46:52.566Z,12.75
2019-03-03T16:49:20.304Z,12.87
2019-03-03T16:51:48.373Z,12.70
2019-03-03T16:54:16.241Z,12.70
2019-03-03T16:56:44.187Z,12.72
2019-03-03T16:59:11.984Z,12.72
2019-03-03T17:01:40.624Z,12.65
2019-03-03T17:04:08.591Z,12.61
2019-03-03T17:06:37.452Z,12.63
2019-03-03T17:09:06.176Z,12.63
2019-03-03T17:11:34.000Z,12.53
2019-03-03T17:14:01.860Z,12.53
2019-03-03T17:16:29.784Z,12.41
2019-03-03T17:18:57.623Z,12.36
2019-03-03T17:21:25.479Z,12.36
2019-03-03T17:23:53.368Z,12.32
2019-03-03T17:26:21.164Z,12.30
2019-03-03T17:28:49.197Z,12.19
2019-03-03T17:31:17.110Z,12.21
2019-03-03T17:33:44.993Z,12.21
2019-03-03T17:36:12.893Z,12.19
2019-03-03T17:38:40.812Z,12.15
2019-03-03T17:41:08.789Z,12.12
2019-03-03T17:43:36.742Z,12.07
2019-03-03T17:46:04.634Z,12.07
2019-03-03T17:48:32.490Z,12.00
2019-03-03T17:51:00.400Z,12.03
2019-03-03T17:53:28.243Z,12.05
2019-03-03T17:55:56.333Z,11.86
2019-03-03T17:58:24.271Z,11.86
2019-03-03T18:00:53.461Z,11.84
2019-03-03T18:03:21.498Z,11.74
2019-03-03T18:05:49.365Z,11.74
2019-03-03T18:08:18.012Z,11.74
2019-03-03T18:10:45.987Z,11.74
2019-03-03T18:13:14.008Z,11.77
2019-03-03T18:15:41.882Z,11.74
2019-03-03T18:18:09.772Z,11.75
2019-03-03T18:20:38.248Z,11.77
2019-03-03T18:23:06.190Z,11.73
2019-03-03T18:25:36.492Z,11.69
2019-03-03T18:28:04.513Z,11.69
2019-03-03T18:30:32.484Z,11.74
2019-03-03T18:33:00.729Z,11.69
2019-03-03T18:35:28.635Z,11.78
2019-03-03T18:37:56.573Z,11.75
2019-03-03T18:40:24.583Z,11.72
2019-03-03T18:42:52.730Z,11.72
2019-03-03T18:45:26.582Z,11.71
2019-03-03T18:47:54.609Z,11.70
2019-03-03T18:50:22.479Z,11.70
2019-03-03T18:52:50.420Z,11.70
2019-03-03T18:55:18.398Z,11.68
2019-03-03T18:57:46.451Z,11.72
2019-03-03T19:00:16.738Z,11.69
2019-03-03T19:02:45.279Z,11.69
2019-03-03T19:05:13.255Z,11.69
2019-03-03T19:07:41.196Z,11.67
2019-03-03T19:10:11.406Z,11.65
2019-03-03T19:12:39.417Z,11.61
2019-03-03T19:15:09.125Z,11.61
2019-03-03T19:17:37.036Z,11.67
2019-03-03T19:20:07.883Z,11.67
2019-03-03T19:22:37.088Z,11.61
2019-03-03T19:25:06.075Z,11.61
2019-03-03T19:27:33.881Z,11.65
2019-03-03T19:30:02.668Z,11.59
2019-03-03T19:32:30.651Z,11.59
2019-03-03T19:34:58.697Z,11.64
2019-03-03T19:37:26.594Z,11.66
2019-03-03T19:39:54.543Z,11.71
2019-03-03T19:42:22.495Z,11.71
2019-03-03T19:44:50.535Z,11.66
2019-03-03T19:47:18.551Z,11.68
2019-03-03T19:49:46.422Z,11.63
2019-03-03T19:52:14.294Z,11.63
2019-03-03T19:54:42.343Z,11.58
2019-03-03T19:57:10.844Z,11.58
2019-03-03T19:59:38.753Z,11.64
2019-03-03T20:02:08.230Z,11.71
2019-03-03T20:04:36.344Z,11.94
2019-03-03T20:07:04.621Z,11.94
2019-03-03T20:09:32.655Z,11.84
2019-03-03T20:12:00.414Z,11.70
2019-03-03T20:14:28.346Z,11.71
2019-03-03T20:16:56.258Z,11.71
2019-03-03T20:19:24.350Z,11.72
2019-03-03T20:21:52.382Z,11.73
2019-03-03T20:24:20.220Z,11.77
2019-03-03T20:26:47.993Z,11.77
2019-03-03T20:29:15.934Z,11.84
2019-03-03T20:31:43.701Z,11.79
2019-03-03T20:34:12.343Z,11.78
2019-03-03T20:36:40.118Z,12.35
2019-03-03T20:39:08.368Z,12.35
2019-03-03T20:41:36.223Z,12.44
2019-03-03T20:44:04.351Z,12.62
2019-03-03T20:46:32.267Z,12.75
2019-03-03T20:49:00.839Z,12.75
2019-03-03T20:51:28.635Z,12.75
2019-03-03T20:53:56.460Z,12.47
2019-03-03T20:56:24.223Z,12.47
2019-03-03T20:58:53.997Z,12.22
2019-03-03T21:01:30.480Z,12.22
2019-03-03T21:03:58.355Z,12.21
2019-03-03T21:06:26.215Z,12.05
2019-03-03T21:08:54.060Z,11.92
2019-03-03T21:11:22.745Z,11.90
2019-03-03T21:13:50.519Z,11.91
2019-03-03T21:16:18.560Z,11.86
2019-03-03T21:18:46.405Z,11.82
2019-03-03T21:21:14.304Z,11.85
2019-03-03T21:23:42.082Z,11.84
2019-03-03T21:26:09.937Z,11.74
2019-03-03T21:28:37.772Z,11.67
2019-03-03T21:31:05.816Z,11.67
2019-03-03T21:33:33.673Z,11.70
2019-03-03T21:36:01.483Z,11.68
2019-03-03T21:38:29.356Z,11.72
2019-03-03T21:40:57.189Z,11.78
2019-03-03T21:43:25.068Z,11.69
2019-03-03T21:45:53.100Z,11.72
2019-03-03T21:48:20.899Z,11.62
2019-03-03T21:50:48.938Z,11.59
2019-03-03T21:53:16.814Z,11.59
2019-03-03T21:55:44.838Z,11.55
2019-03-03T21:58:12.744Z,11.50
2019-03-03T22:00:41.381Z,11.56
2019-03-03T22:03:09.367Z,11.53
2019-03-03T22:05:37.320Z,11.49
2019-03-03T22:08:05.320Z,11.41
2019-03-03T22:10:33.363Z,11.38
2019-03-03T22:13:03.441Z,11.39
2019-03-03T22:15:31.397Z,11.40
2019-03-03T22:17:59.291Z,11.34
2019-03-03T22:20:27.284Z,11.35
2019-03-03T22:22:55.291Z,11.35
2019-03-03T22:25:23.232Z,11.31
2019-03-03T22:27:51.199Z,11.22
2019-03-03T22:30:20.132Z,11.21
2019-03-03T22:32:48.074Z,11.20
2019-03-03T22:35:16.010Z,11.30
2019-03-03T22:37:43.968Z,11.30
2019-03-03T22:40:12.128Z,11.29
2019-03-03T22:42:40.126Z,11.27
2019-03-03T22:45:09.841Z,11.27
2019-03-03T22:47:37.774Z,11.27
2019-03-03T22:50:06.211Z,11.32
2019-03-03T22:52:34.014Z,11.22
2019-03-03T22:55:01.857Z,11.22
2019-03-03T22:57:29.644Z,11.19
2019-03-03T22:59:57.640Z,11.27
2019-03-03T23:02:25.532Z,11.21
2019-03-03T23:05:16.364Z,11.29
2019-03-03T23:08:10.095Z,11.20
2019-03-03T23:10:55.727Z,11.17
2019-03-03T23:13:39.984Z,11.12
2019-03-03T23:16:46.457Z,11.04
2019-03-03T23:20:00.555Z,10.96
2019-03-03T23:22:55.796Z,10.96
2019-03-03T23:25:55.092Z,10.93
2019-03-03T23:28:23.907Z,10.92
2019-03-03T23:30:53.215Z,11.01
2019-03-03T23:33:21.276Z,11.00
2019-03-03T23:35:49.258Z,11.08
2019-03-03T23:38:17.254Z,11.07
2019-03-03T23:40:45.308Z,11.01
2019-03-03T23:43:13.509Z,10.96
2019-03-03T23:45:41.867Z,10.97
2019-03-03T23:48:09.712Z,10.96
2019-03-03T23:50:37.625Z,10.91
2019-03-03T23:53:05.595Z,10.88
2019-03-03T23:55:33.444Z,10.89
2019-03-03T23:58:01.394Z,10.86
